Time;durP1;ratioP1;P1;durP2;ratioP2;P2;SDS_P1;SDS_P2;PMS_P1;PMS_P2;Temp;Humidity;BMP_temperature;BMP_pressure;BME280_temperature;BME280_humidity;BME280_pressure;Samples;Min_cycle;Max_cycle;Signal;HPM_P1;HPM_P2
2021/12/29 18:20:19;;;;;;;52.88;10.38;;;;;;;-142.75;100.00;76664.78;5072054;28;20349;-68
2021/12/29 18:22:44;;;;;;;41.55;9.13;;;;;;;-142.75;100.00;76652.97;5055770;28;20032;-67
2021/12/29 18:25:10;;;;;;;47.83;9.82;;;;;;;-142.75;100.00;76660.84;5059889;28;20425;-68
2021/12/29 18:27:36;;;;;;;41.70;9.18;;;;;;;-142.75;100.00;76674.63;5063122;28;20082;-67
2021/12/29 18:30:04;;;;;;;55.22;9.32;;;;;;;-142.75;100.00;76674.63;5058370;28;20021;-67
2021/12/29 18:32:30;;;;;;;51.83;8.68;;;;;;;-142.75;100.00;76668.72;5051478;28;20499;-67
2021/12/29 18:34:55;;;;;;;45.72;9.05;;;;;;;-142.75;100.00;76645.09;5054310;28;20031;-67
2021/12/29 18:37:21;;;;;;;45.25;7.95;;;;;;;-142.75;100.00;76635.25;5042891;28;20052;-68
2021/12/29 18:39:46;;;;;;;45.00;7.15;;;;;;;-142.75;100.00;76623.44;5043146;28;20030;-67
2021/12/29 18:42:12;;;;;;;34.55;6.75;;;;;;;-142.75;100.00;76599.81;5043199;28;20025;-67
2021/12/29 18:44:38;;;;;;;34.70;6.45;;;;;;;-142.75;100.00;76580.13;5060959;28;20025;-67
2021/12/29 18:47:03;;;;;;;52.85;8.05;;;;;;;-142.75;100.00;76578.16;5062576;28;20425;-67
2021/12/29 18:49:29;;;;;;;50.05;7.30;;;;;;;-142.75;100.00;76578.16;5062417;28;20401;-67
2021/12/29 18:51:54;;;;;;;40.70;5.57;;;;;;;-142.75;100.00;76625.41;5057741;28;20044;-67
2021/12/29 18:54:19;;;;;;;44.20;6.00;;;;;;;-142.75;100.00;76629.34;5058848;28;20024;-67
2021/12/29 18:56:45;;;;;;;33.92;6.45;;;;;;;-142.75;100.00;76611.63;5062480;28;20034;-67
2021/12/29 18:59:10;;;;;;;46.83;6.57;;;;;;;-142.75;100.00;76631.31;5060958;28;20512;-67
2021/12/29 19:01:35;;;;;;;44.58;6.28;;;;;;;-142.75;100.00;76664.78;5061570;28;20032;-67
2021/12/29 19:04:03;;;;;;;48.47;7.00;;;;;;;-142.75;100.00;76652.97;5054076;28;20117;-67
2021/12/29 19:06:32;;;;;;;34.80;6.00;;;;;;;-142.75;100.00;76647.06;5058833;28;20036;-67
2021/12/29 19:08:58;;;;;;;43.33;6.78;;;;;;;-142.75;100.00;76651.00;5055352;28;20027;-67
2021/12/29 19:11:25;;;;;;;;;;;;;;;-142.75;100.00;76660.84;5056510;28;20525;-67
2021/12/29 19:13:52;;;;;;;41.88;8.25;;;;;;;-142.75;100.00;76680.53;5062856;28;20436;-67
2021/12/29 19:16:18;;;;;;;53.63;12.43;;;;;;;-142.75;100.00;76694.31;5061402;28;20051;-67
2021/12/29 19:18:44;;;;;;;;;;;;;;;-142.75;100.00;76710.06;5062000;28;20032;-67
2021/12/29 19:21:09;;;;;;;39.45;6.15;;;;;;;-142.75;100.00;76717.94;5059742;28;20251;-67
2021/12/29 19:23:35;;;;;;;41.95;6.18;;;;;;;-142.75;100.00;76729.75;5061937;28;20086;-67
2021/12/29 19:26:00;;;;;;;41.25;6.30;;;;;;;-142.75;100.00;76753.38;5061627;28;20021;-67
2021/12/29 19:28:25;;;;;;;47.67;7.20;;;;;;;-142.75;100.00;76745.50;5061661;28;20027;-66
2021/12/29 19:30:54;;;;;;;40.22;6.50;;;;;;;-142.75;100.00;76757.31;5051138;28;20028;-67
2021/12/29 19:33:20;;;;;;;35.28;6.40;;;;;;;-142.75;100.00;76761.25;5032078;28;20033;-66
2021/12/29 19:35:47;;;;;;;;;;;;;;;-142.75;100.00;76759.28;5029256;28;20064;-67
2021/12/29 19:38:16;;;;;;;44.13;6.68;;;;;;;-142.75;100.00;76778.97;5029000;28;19913;-67
2021/12/29 19:40:43;;;;;;;36.55;6.50;;;;;;;-142.75;100.00;76777.00;5027817;28;20033;-67
2021/12/29 19:43:08;;;;;;;40.90;5.90;;;;;;;-142.75;100.00;76786.84;5028216;28;20068;-67
2021/12/29 19:45:34;;;;;;;39.05;6.38;;;;;;;-142.75;100.00;76788.81;5028007;28;20061;-67
2021/12/29 19:48:00;;;;;;;32.05;5.63;;;;;;;-142.75;100.00;76790.78;5042816;28;20074;-67
2021/12/29 19:50:27;;;;;;;;;;;;;;;-142.75;100.00;76808.50;5047259;28;20406;-66
2021/12/29 19:52:57;;;;;;;44.58;6.22;;;;;;;-142.75;100.00;76822.25;5039328;28;20476;-66
2021/12/29 19:55:22;;;;;;;36.97;5.55;;;;;;;-142.75;100.00;76814.38;5026269;28;20021;-66
2021/12/29 19:57:48;;;;;;;38.25;6.32;;;;;;;-142.75;100.00;76806.50;5027917;28;20526;-66
2021/12/29 20:00:16;;;;;;;44.28;5.90;;;;;;;-142.75;100.00;76798.66;5025768;28;20105;-66
2021/12/29 20:02:42;;;;;;;46.50;7.07;;;;;;;-142.75;100.00;76800.63;5027349;28;20565;-66
2021/12/29 20:05:14;;;;;;;32.20;5.50;;;;;;;-142.75;100.00;76796.69;5042438;28;20057;-66
2021/12/29 20:07:41;;;;;;;34.28;5.43;;;;;;;-142.75;100.00;76796.69;5047317;28;20063;-67
2021/12/29 20:10:06;;;;;;;41.05;7.22;;;;;;;-142.75;100.00;76810.44;5047206;28;20525;-66
2021/12/29 20:12:32;;;;;;;37.25;6.25;;;;;;;-142.75;100.00;76806.50;5038702;28;20034;-66
2021/12/29 20:14:58;;;;;;;45.42;5.82;;;;;;;-142.75;100.00;76810.44;5037795;28;20410;-66
2021/12/29 20:17:24;;;;;;;42.75;7.00;;;;;;;-142.75;100.00;76812.41;5026606;28;20025;-67
2021/12/29 20:19:49;;;;;;;40.60;7.68;;;;;;;-142.75;100.00;76812.41;5029156;28;20029;-66
2021/12/29 20:22:14;;;;;;;44.17;7.13;;;;;;;-142.75;100.00;76834.06;5027533;28;20036;-66
2021/12/29 20:24:40;;;;;;;40.92;7.25;;;;;;;-142.75;100.00;76841.94;5035791;28;20039;-68
2021/12/29 20:27:06;;;;;;;39.38;7.13;;;;;;;-142.75;100.00;76857.69;5035510;28;20055;-67
2021/12/29 20:29:33;;;;;;;47.80;6.95;;;;;;;-142.75;100.00;76863.59;5037177;28;20017;-66
2021/12/29 20:32:01;;;;;;;49.83;8.68;;;;;;;-142.75;100.00;76869.50;5033402;28;20541;-66
2021/12/29 20:34:31;;;;;;;50.70;9.73;;;;;;;-142.75;100.00;76871.47;5028280;28;20706;-66
2021/12/29 20:36:57;;;;;;;56.20;8.70;;;;;;;-142.75;100.00;76887.22;5028395;28;20025;-66
2021/12/29 20:39:23;;;;;;;55.70;8.15;;;;;;;-142.75;100.00;76893.13;5028279;28;20056;-67
2021/12/29 20:41:49;;;;;;;43.45;6.70;;;;;;;-142.75;100.00;76901.00;5026767;28;20057;-67
2021/12/29 20:44:14;;;;;;;54.47;7.47;;;;;;;-142.75;100.00;76920.69;5028510;28;20024;-67
2021/12/29 20:46:39;;;;;;;43.22;8.27;;;;;;;-142.75;100.00;76928.56;5027056;28;20796;-67
2021/12/29 20:49:05;;;;;;;49.72;8.80;;;;;;;-142.75;100.00;76944.31;5027543;28;20031;-67
2021/12/29 20:51:31;;;;;;;57.65;8.40;;;;;;;-142.75;100.00;76952.19;5026819;28;20030;-66
2021/12/29 20:53:57;;;;;;;43.22;7.82;;;;;;;-142.75;100.00;76960.06;5027303;28;20060;-68
2021/12/29 20:56:23;;;;;;;41.05;8.05;;;;;;;-142.75;100.00;76971.88;5027440;28;20064;-67
2021/12/29 20:58:49;;;;;;;43.95;8.93;;;;;;;-142.75;100.00;76987.63;5026641;28;20021;-65
2021/12/29 21:01:14;;;;;;;44.92;9.52;;;;;;;-142.75;100.00;76995.50;5026794;28;20079;-66
2021/12/29 21:03:44;;;;;;;42.20;9.65;;;;;;;-142.75;100.00;77003.38;5026233;28;20025;-66
2021/12/29 21:06:10;;;;;;;55.67;10.02;;;;;;;-142.75;100.00;77023.06;5027897;28;20144;-66
2021/12/29 21:08:36;;;;;;;47.22;8.25;;;;;;;-142.75;100.00;77019.13;5027296;28;20104;-66
2021/12/29 21:11:02;;;;;;;;;;;;;;;-142.75;100.00;77036.84;5027645;28;20518;-66
2021/12/29 21:13:27;;;;;;;36.85;9.65;;;;;;;-142.75;100.00;77054.56;5027875;28;19913;-66
2021/12/29 21:15:52;;;;;;;34.72;6.55;;;;;;;-142.75;100.00;77070.31;5027492;28;20029;-66
2021/12/29 21:18:18;;;;;;;26.77;6.90;;;;;;;-142.75;100.00;77074.25;5027229;28;20071;-66
2021/12/29 21:20:43;;;;;;;32.75;6.43;;;;;;;-142.75;100.00;77080.16;5026265;28;20108;-67
2021/12/29 21:23:09;;;;;;;36.50;9.02;;;;;;;-142.75;100.00;77086.06;5027210;28;20098;-67
2021/12/29 21:25:35;;;;;;;32.67;7.78;;;;;;;-142.75;100.00;77090.00;5027207;28;20021;-66
2021/12/29 21:28:02;;;;;;;44.00;8.20;;;;;;;-142.75;100.00;77088.03;5028696;28;20095;-66
2021/12/29 21:30:31;;;;;;;34.10;7.25;;;;;;;-142.75;100.00;77090.00;5025971;28;20117;-67
2021/12/29 21:32:57;;;;;;;30.35;7.07;;;;;;;-142.75;100.00;77088.03;5023356;28;20079;-66
2021/12/29 21:35:24;;;;;;;34.80;8.38;;;;;;;-142.75;100.00;77103.78;5028199;28;20029;-67
2021/12/29 21:37:50;;;;;;;31.27;7.97;;;;;;;-142.75;100.00;77117.56;5025923;28;20044;-67
2021/12/29 21:40:18;;;;;;;32.17;8.02;;;;;;;-142.75;100.00;77113.63;5026740;28;20029;-67
2021/12/29 21:42:45;;;;;;;37.75;7.43;;;;;;;-142.75;100.00;77119.53;5026859;28;20025;-66
2021/12/29 21:45:14;;;;;;;25.92;5.80;;;;;;;-142.75;100.00;77129.38;5026642;28;20025;-66
2021/12/29 21:47:43;;;;;;;35.65;7.90;;;;;;;-142.75;100.00;77133.31;5025859;28;20025;-66
2021/12/29 21:50:09;;;;;;;36.03;8.38;;;;;;;-142.75;100.00;77149.06;5025284;28;20079;-66
2021/12/29 21:52:34;;;;;;;28.98;7.75;;;;;;;-142.75;100.00;77143.16;5026554;28;20029;-67
2021/12/29 21:54:59;;;;;;;40.47;7.03;;;;;;;-142.75;100.00;77143.16;5017231;28;20029;-66
2021/12/29 21:57:25;;;;;;;41.42;8.45;;;;;;;-142.75;100.00;77141.19;5022418;28;20025;-66
2021/12/29 21:59:50;;;;;;;34.45;7.85;;;;;;;-142.75;100.00;77147.09;5024895;28;20013;-66
2021/12/29 22:02:15;;;;;;;33.40;7.82;;;;;;;-142.75;100.00;77139.22;5026278;28;20104;-66
2021/12/29 22:04:41;;;;;;;35.67;8.57;;;;;;;-142.75;100.00;77141.19;5026340;28;20041;-66
2021/12/29 22:07:06;;;;;;;30.85;7.25;;;;;;;-142.75;100.00;77143.16;5033375;28;20029;-67
2021/12/29 22:09:31;;;;;;;31.48;7.50;;;;;;;-142.75;100.00;77139.22;5047269;28;20120;-67
2021/12/29 22:11:57;;;;;;;27.55;7.47;;;;;;;-142.75;100.00;77139.22;5046256;28;20469;-66
2021/12/29 22:17:03;;;;;;;32.25;7.60;;;;;;;-142.75;100.00;77137.25;5003431;28;20412;-67
2021/12/29 22:19:30;;;;;;;30.88;7.90;;;;;;;-142.75;100.00;77133.31;5007429;28;20030;-67
2021/12/29 22:21:56;;;;;;;27.35;7.95;;;;;;;-142.75;100.00;77145.13;5010851;28;20453;-70
2021/12/29 22:24:21;;;;;;;32.25;8.15;;;;;;;-142.75;100.00;77141.19;5008991;28;20025;-67
2021/12/29 22:26:46;;;;;;;26.70;7.18;;;;;;;-142.75;100.00;77141.19;5013817;28;20034;-68
2021/12/29 22:29:12;;;;;;;29.42;7.45;;;;;;;-142.75;100.00;77135.28;4988337;28;20483;-68
2021/12/29 22:31:37;;;;;;;33.17;7.38;;;;;;;-142.75;100.00;77139.22;4988429;28;20072;-66
2021/12/29 22:34:02;;;;;;;28.23;7.05;;;;;;;-142.75;100.00;77143.16;5021773;28;20056;-69
2021/12/29 22:36:28;;;;;;;30.42;8.18;;;;;;;-142.75;100.00;77137.25;5021428;28;20423;-67
2021/12/29 22:38:53;;;;;;;34.10;7.80;;;;;;;-142.75;100.00;77162.84;5012663;28;20053;-72
2021/12/29 22:41:19;;;;;;;30.02;7.35;;;;;;;-142.75;100.00;77139.22;5015479;28;20033;-66
2021/12/29 22:43:48;;;;;;;35.90;8.10;;;;;;;-142.75;100.00;77153.00;5016752;28;20094;-68
2021/12/29 22:46:14;;;;;;;32.63;7.70;;;;;;;-142.75;100.00;77149.06;5013945;28;20494;-67
2021/12/29 22:48:42;;;;;;;33.83;8.02;;;;;;;-142.75;100.00;77151.03;5018621;28;20373;-67
2021/12/29 22:51:08;;;;;;;38.63;7.75;;;;;;;-142.75;100.00;77154.97;5021603;28;20036;-67
2021/12/29 22:53:33;;;;;;;24.13;7.30;;;;;;;-142.75;100.00;77154.97;5018086;28;20026;-67
2021/12/29 22:56:01;;;;;;;32.47;6.25;;;;;;;-142.75;100.00;77154.97;5007610;28;20041;-69
2021/12/29 22:58:27;;;;;;;28.23;6.82;;;;;;;-142.75;100.00;77166.78;5000085;28;20475;-68
2021/12/29 23:01:04;;;;;;;35.13;7.22;;;;;;;-142.75;100.00;77178.59;5009655;28;20033;-69
2021/12/29 23:03:31;;;;;;;29.25;7.18;;;;;;;-142.75;100.00;77178.59;5017003;28;20457;-67
2021/12/29 23:05:57;;;;;;;29.65;6.85;;;;;;;-142.75;100.00;77172.69;5018918;28;20788;-69
2021/12/29 23:08:25;;;;;;;30.60;6.25;;;;;;;-142.75;100.00;77158.91;5003138;28;20108;-65
2021/12/29 23:10:54;;;;;;;36.75;8.23;;;;;;;-142.75;100.00;77164.81;4998377;28;20036;-67
2021/12/29 23:13:20;;;;;;;37.58;7.97;;;;;;;-142.75;100.00;77164.81;5004601;28;20108;-67
2021/12/29 23:15:45;;;;;;;34.28;7.45;;;;;;;-142.75;100.00;77160.88;5021586;28;20116;-67
2021/12/29 23:18:11;;;;;;;41.15;8.60;;;;;;;-142.75;100.00;77164.81;5005821;28;20083;-67
2021/12/29 23:20:37;;;;;;;35.42;8.07;;;;;;;-142.75;100.00;77176.63;5020325;28;20078;-67
